createdAt,value
2017-08-25T00:00:35.474Z,23.07
2017-08-25T00:01:15.980Z,23.12
2017-08-25T00:01:56.557Z,23.13
2017-08-25T00:02:37.084Z,23.1
2017-08-25T00:03:17.623Z,23.13
2017-08-25T00:03:58.196Z,23.13
2017-08-25T00:04:38.728Z,23.13
2017-08-25T00:05:19.284Z,23.04
2017-08-25T00:05:59.840Z,23.04
2017-08-25T00:06:40.426Z,23.02
2017-08-25T00:07:20.955Z,23.04
2017-08-25T00:08:01.527Z,23.16
2017-08-25T00:08:42.085Z,23
2017-08-25T00:09:22.656Z,22.88
2017-08-25T00:10:03.231Z,22.8
2017-08-25T00:10:43.801Z,22.8
2017-08-25T00:11:24.383Z,22.76
2017-08-25T00:12:04.948Z,22.79
2017-08-25T00:12:45.518Z,22.9
2017-08-25T00:13:26.091Z,22.92
2017-08-25T00:14:06.651Z,22.95
2017-08-25T00:14:47.232Z,22.97
2017-08-25T00:15:27.817Z,23.01
2017-08-25T00:16:08.341Z,23.07
2017-08-25T00:16:48.918Z,23.01
2017-08-25T00:17:29.474Z,23.02
2017-08-25T00:18:10.052Z,23.04
2017-08-25T00:18:50.636Z,23.05
2017-08-25T00:19:31.198Z,22.88
2017-08-25T00:20:11.753Z,22.98
2017-08-25T00:20:52.317Z,22.82
2017-08-25T00:21:32.885Z,22.85
2017-08-25T00:22:13.460Z,22.86
2017-08-25T00:22:54.029Z,22.91
2017-08-25T00:23:34.592Z,22.88
2017-08-25T00:24:15.160Z,22.88
2017-08-25T00:24:55.729Z,22.91
2017-08-25T00:25:36.308Z,22.88
2017-08-25T00:26:16.896Z,22.92
2017-08-25T00:26:57.446Z,22.73
2017-08-25T00:27:38.018Z,22.79
2017-08-25T00:28:18.606Z,22.77
2017-08-25T00:28:59.174Z,22.77
2017-08-25T00:29:39.738Z,22.82
2017-08-25T00:30:20.300Z,22.65
2017-08-25T00:31:00.870Z,22.6
2017-08-25T00:31:41.419Z,22.54
2017-08-25T00:32:21.987Z,22.61
2017-08-25T00:33:02.524Z,22.62
2017-08-25T00:33:43.128Z,22.62
2017-08-25T00:34:23.702Z,22.57
2017-08-25T00:35:04.263Z,22.61
2017-08-25T00:35:44.834Z,22.51
2017-08-25T00:36:25.378Z,22.47
2017-08-25T00:37:05.926Z,22.57
2017-08-25T00:37:46.485Z,22.54
2017-08-25T00:38:27.051Z,22.36
2017-08-25T00:39:07.606Z,22.27
2017-08-25T00:39:48.163Z,22.3
2017-08-25T00:40:28.739Z,22.28
2017-08-25T00:41:09.297Z,22.18
2017-08-25T00:41:49.877Z,22.3
2017-08-25T00:42:30.430Z,22.33
2017-08-25T00:43:10.995Z,22.28
2017-08-25T00:43:51.554Z,22.2
2017-08-25T00:44:32.117Z,22.25
2017-08-25T00:45:12.675Z,22.25
2017-08-25T00:45:53.212Z,22.28
2017-08-25T00:46:33.761Z,22.33
2017-08-25T00:47:14.300Z,22.31
2017-08-25T00:47:54.861Z,22.37
2017-08-25T00:48:35.438Z,22.49
2017-08-25T00:49:16.006Z,22.43
2017-08-25T00:49:56.585Z,22.46
2017-08-25T00:50:37.165Z,22.33
2017-08-25T00:51:17.724Z,22.18
2017-08-25T00:51:58.285Z,22.14
2017-08-25T00:52:38.868Z,22.33
2017-08-25T00:53:19.432Z,22.33
2017-08-25T00:53:59.982Z,22.4
2017-08-25T00:54:40.550Z,22.45
2017-08-25T00:55:21.110Z,22.33
2017-08-25T00:56:01.682Z,22.45
2017-08-25T00:56:42.216Z,22.42
2017-08-25T00:57:22.780Z,22.31
2017-08-25T00:58:03.329Z,22.33
2017-08-25T00:58:43.909Z,22.35
2017-08-25T00:59:24.466Z,22.45
2017-08-25T01:00:05.029Z,22.42
2017-08-25T01:00:45.592Z,22.37
2017-08-25T01:01:26.136Z,22.45
2017-08-25T01:02:06.698Z,22.43
2017-08-25T01:02:47.256Z,22.45
2017-08-25T01:03:27.813Z,22.39
2017-08-25T01:04:08.377Z,22.4
2017-08-25T01:04:48.946Z,22.46
2017-08-25T01:05:29.519Z,22.46
2017-08-25T01:06:10.082Z,22.43
2017-08-25T01:06:50.653Z,22.43
2017-08-25T01:07:31.229Z,22.54
2017-08-25T01:08:11.798Z,22.42
2017-08-25T01:08:52.364Z,22.42
2017-08-25T01:09:32.916Z,22.47
2017-08-25T01:10:13.478Z,22.47
2017-08-25T01:10:54.052Z,22.54
2017-08-25T01:11:34.618Z,22.49
2017-08-25T01:12:15.185Z,22.58
2017-08-25T01:12:55.749Z,22.57
2017-08-25T01:13:36.330Z,22.55
2017-08-25T01:14:16.897Z,22.51
2017-08-25T01:14:57.464Z,22.57
2017-08-25T01:15:38.028Z,22.49
2017-08-25T01:16:18.572Z,22.49
2017-08-25T01:16:59.121Z,22.51
2017-08-25T01:17:39.683Z,22.49
2017-08-25T01:18:20.243Z,22.52
2017-08-25T01:19:00.793Z,22.49
2017-08-25T01:19:41.345Z,22.51
2017-08-25T01:20:21.911Z,22.52
2017-08-25T01:21:02.476Z,22.45
2017-08-25T01:21:43.043Z,22.45
2017-08-25T01:22:23.599Z,22.4
2017-08-25T01:23:04.159Z,22.4
2017-08-25T01:23:44.726Z,22.45
2017-08-25T01:24:25.288Z,22.45
2017-08-25T01:25:05.840Z,22.39
2017-08-25T01:25:46.386Z,22.52
2017-08-25T01:26:26.978Z,22.43
2017-08-25T01:27:07.495Z,22.49
2017-08-25T01:27:48.053Z,22.57
2017-08-25T01:28:28.611Z,22.52
2017-08-25T01:29:09.168Z,22.49
2017-08-25T01:29:49.690Z,22.52
2017-08-25T01:30:30.245Z,22.49
2017-08-25T01:31:10.821Z,22.54
2017-08-25T01:31:51.404Z,22.43
2017-08-25T01:32:31.971Z,22.52
2017-08-25T01:33:12.537Z,22.46
2017-08-25T01:33:53.093Z,22.52
2017-08-25T01:34:33.657Z,22.43
2017-08-25T01:35:14.196Z,22.45
2017-08-25T01:35:54.767Z,22.45
2017-08-25T01:36:35.320Z,22.55
2017-08-25T01:37:15.893Z,22.55
2017-08-25T01:37:56.450Z,22.55
2017-08-25T01:38:37.002Z,22.55
2017-08-25T01:39:17.589Z,22.54
2017-08-25T01:39:58.147Z,22.51
2017-08-25T01:40:38.692Z,22.51
2017-08-25T01:41:19.253Z,22.54
2017-08-25T01:41:59.825Z,22.54
2017-08-25T01:42:40.385Z,22.51
2017-08-25T01:43:20.946Z,22.47
2017-08-25T01:44:01.513Z,22.54
2017-08-25T01:44:42.076Z,22.57
2017-08-25T01:45:22.627Z,22.47
2017-08-25T01:46:03.188Z,22.52
2017-08-25T01:46:43.748Z,22.31
2017-08-25T01:47:24.328Z,22.4
2017-08-25T01:48:04.876Z,22.52
2017-08-25T01:48:45.458Z,22.42
2017-08-25T01:49:26.036Z,22.35
2017-08-25T01:50:06.602Z,22.35
2017-08-25T01:50:47.163Z,22.43
2017-08-25T01:51:27.728Z,22.4
2017-08-25T01:52:08.315Z,22.43
2017-08-25T01:52:48.874Z,22.43
2017-08-25T01:53:29.437Z,22.43
2017-08-25T01:54:10.010Z,22.37
2017-08-25T01:54:50.593Z,22.47
2017-08-25T01:55:31.148Z,22.4
2017-08-25T01:56:11.710Z,22.31
2017-08-25T01:56:52.308Z,22.31
2017-08-25T01:57:32.855Z,22.33
2017-08-25T01:58:13.436Z,22.31
2017-08-25T01:58:53.980Z,22.33
2017-08-25T01:59:34.536Z,22.37
2017-08-25T02:00:15.109Z,22.28
2017-08-25T02:00:55.647Z,22.2
2017-08-25T02:01:36.200Z,22.28
2017-08-25T02:02:16.779Z,22.28
2017-08-25T02:02:57.336Z,22.21
2017-08-25T02:03:37.902Z,22.18
2017-08-25T02:04:18.469Z,22.25
2017-08-25T02:04:59.050Z,22.3
2017-08-25T02:05:39.621Z,22.17
2017-08-25T02:06:20.202Z,22.28
2017-08-25T02:07:00.782Z,22.3
2017-08-25T02:07:41.324Z,22.22
2017-08-25T02:08:21.900Z,22.22
2017-08-25T02:09:02.454Z,22.3
2017-08-25T02:09:43.029Z,22.2
2017-08-25T02:10:23.601Z,22.15
2017-08-25T02:11:04.177Z,22.25
2017-08-25T02:11:44.732Z,22.31
2017-08-25T02:12:25.292Z,22.21
2017-08-25T02:13:05.843Z,22.18
2017-08-25T02:13:46.422Z,22.27
2017-08-25T02:14:26.981Z,22.17
2017-08-25T02:15:07.557Z,22.27
2017-08-25T02:15:48.117Z,22.22
2017-08-25T02:16:28.684Z,22.33
2017-08-25T02:17:09.226Z,22.28
2017-08-25T02:17:49.793Z,22.28
2017-08-25T02:18:30.345Z,22.31
2017-08-25T02:19:10.921Z,22.33
2017-08-25T02:19:51.479Z,22.33
2017-08-25T02:20:32.049Z,22.31
2017-08-25T02:21:12.603Z,22.36
2017-08-25T02:21:53.169Z,22.28
2017-08-25T02:22:33.740Z,22.31
2017-08-25T02:23:14.327Z,22.36
2017-08-25T02:23:54.893Z,22.28
2017-08-25T02:24:35.486Z,22.28
2017-08-25T02:25:16.048Z,22.17
2017-08-25T02:25:56.618Z,22.14
2017-08-25T02:26:37.199Z,22.33
2017-08-25T02:27:17.765Z,22.22
2017-08-25T02:27:58.331Z,22.33
2017-08-25T02:28:38.895Z,22.33
2017-08-25T02:29:19.455Z,22.28
2017-08-25T02:30:00.027Z,22.3
2017-08-25T02:30:40.602Z,22.24
2017-08-25T02:31:21.164Z,22.3
2017-08-25T02:32:01.719Z,22.28
2017-08-25T02:32:42.282Z,22.35
2017-08-25T02:33:22.851Z,22.28
2017-08-25T02:34:03.415Z,22.22
2017-08-25T02:34:43.966Z,22.31
2017-08-25T02:35:24.534Z,22.28
2017-08-25T02:36:05.102Z,22.31
2017-08-25T02:36:45.670Z,22.21
2017-08-25T02:37:26.244Z,22.2
2017-08-25T02:38:06.794Z,22.22
2017-08-25T02:38:47.349Z,22.2
2017-08-25T02:39:27.919Z,22.14
2017-08-25T02:40:08.495Z,22.17
2017-08-25T02:40:49.061Z,22.17
2017-08-25T02:41:29.635Z,22.24
2017-08-25T02:42:10.210Z,22.22
2017-08-25T02:42:50.767Z,22.22
2017-08-25T02:43:31.314Z,22.17
2017-08-25T02:44:11.876Z,22.17
2017-08-25T02:44:52.413Z,22.24
2017-08-25T02:45:32.970Z,22.2
2017-08-25T02:46:13.522Z,22.18
2017-08-25T02:46:54.080Z,22.2
2017-08-25T02:47:34.631Z,22.17
2017-08-25T02:48:15.183Z,22.06
2017-08-25T02:48:55.742Z,22.06
2017-08-25T02:49:36.336Z,22
2017-08-25T02:50:16.902Z,22.02
2017-08-25T02:50:57.460Z,21.96
2017-08-25T02:51:38.026Z,21.92
2017-08-25T02:52:18.580Z,21.99
2017-08-25T02:52:59.120Z,21.99
2017-08-25T02:53:39.673Z,22
2017-08-25T02:54:20.233Z,21.99
2017-08-25T02:55:00.788Z,22.06
2017-08-25T02:55:41.347Z,21.86
2017-08-25T02:56:21.906Z,22
2017-08-25T02:57:02.485Z,21.96
2017-08-25T02:57:43.047Z,21.92
2017-08-25T02:58:23.607Z,21.94
2017-08-25T02:59:04.183Z,21.96
2017-08-25T02:59:44.730Z,21.91
2017-08-25T03:00:25.291Z,21.92
2017-08-25T03:01:05.856Z,21.86
2017-08-25T03:01:46.420Z,21.88
2017-08-25T03:02:26.971Z,21.79
2017-08-25T03:03:07.552Z,21.91
2017-08-25T03:03:48.130Z,21.9
2017-08-25T03:04:28.699Z,21.92
2017-08-25T03:05:09.266Z,21.86
2017-08-25T03:05:49.830Z,22
2017-08-25T03:06:30.410Z,22
2017-08-25T03:07:10.977Z,21.96
2017-08-25T03:07:51.545Z,21.92
2017-08-25T03:08:32.112Z,22.02
2017-08-25T03:09:12.661Z,21.94
2017-08-25T03:09:53.247Z,21.96
2017-08-25T03:10:33.810Z,21.99
2017-08-25T03:11:14.384Z,21.99
2017-08-25T03:11:54.953Z,21.9
2017-08-25T03:12:35.519Z,21.96
2017-08-25T03:13:16.087Z,21.94
2017-08-25T03:13:56.656Z,21.91
2017-08-25T03:14:37.242Z,21.94
2017-08-25T03:15:17.803Z,21.98
2017-08-25T03:15:58.363Z,21.98
2017-08-25T03:16:38.931Z,21.91
2017-08-25T03:17:19.488Z,21.82
2017-08-25T03:18:00.063Z,21.88
2017-08-25T03:18:40.621Z,22
2017-08-25T03:19:21.204Z,21.94
2017-08-25T03:20:01.752Z,21.96
2017-08-25T03:20:42.312Z,21.8
2017-08-25T03:21:22.886Z,21.92
2017-08-25T03:22:03.462Z,21.96
2017-08-25T03:22:44.025Z,21.77
2017-08-25T03:23:24.590Z,21.75
2017-08-25T03:24:05.159Z,21.8
2017-08-25T03:24:45.724Z,21.77
2017-08-25T03:25:26.295Z,21.68
2017-08-25T03:26:06.872Z,21.77
2017-08-25T03:26:47.463Z,21.79
2017-08-25T03:27:28.010Z,21.67
2017-08-25T03:28:08.573Z,21.71
2017-08-25T03:28:49.121Z,21.68
2017-08-25T03:29:29.675Z,21.72
2017-08-25T03:30:10.247Z,21.75
2017-08-25T03:30:50.793Z,21.68
2017-08-25T03:31:31.378Z,21.82
2017-08-25T03:32:11.949Z,21.8
2017-08-25T03:32:52.528Z,21.69
2017-08-25T03:33:33.077Z,21.77
2017-08-25T03:34:13.634Z,21.8
2017-08-25T03:34:54.190Z,21.82
2017-08-25T03:35:34.751Z,21.82
2017-08-25T03:36:15.298Z,21.72
2017-08-25T03:36:55.861Z,21.79
2017-08-25T03:37:36.438Z,21.77
2017-08-25T03:38:17.004Z,21.72
2017-08-25T03:38:57.577Z,21.8
2017-08-25T03:39:38.141Z,21.62
2017-08-25T03:40:18.724Z,21.61
2017-08-25T03:40:59.315Z,21.68
2017-08-25T03:41:39.872Z,21.67
2017-08-25T03:42:20.436Z,21.64
2017-08-25T03:43:00.996Z,21.69
2017-08-25T03:43:41.585Z,21.67
2017-08-25T03:44:22.152Z,21.64
2017-08-25T03:45:02.717Z,21.49
2017-08-25T03:45:43.292Z,21.64
2017-08-25T03:46:23.859Z,21.61
2017-08-25T03:47:04.428Z,21.65
2017-08-25T03:47:44.992Z,21.52
2017-08-25T03:48:25.549Z,21.59
2017-08-25T03:49:06.115Z,21.62
2017-08-25T03:49:46.691Z,21.64
2017-08-25T03:50:27.249Z,21.64
2017-08-25T03:51:07.814Z,21.61
2017-08-25T03:51:48.377Z,21.65
2017-08-25T03:52:28.934Z,21.64
2017-08-25T03:53:09.480Z,21.64
2017-08-25T03:53:50.040Z,21.61
2017-08-25T03:54:30.602Z,21.64
2017-08-25T03:55:11.168Z,21.61
2017-08-25T03:55:51.728Z,21.62
2017-08-25T03:56:32.302Z,21.67
2017-08-25T03:57:12.860Z,21.64
2017-08-25T03:57:53.434Z,21.62
2017-08-25T03:58:33.976Z,21.61
2017-08-25T03:59:14.534Z,21.61
2017-08-25T03:59:55.094Z,21.56
2017-08-25T04:00:35.641Z,21.5
2017-08-25T04:01:16.222Z,21.5
2017-08-25T04:01:56.792Z,21.54
2017-08-25T04:02:37.370Z,21.49
2017-08-25T04:03:17.941Z,21.44
2017-08-25T04:03:58.508Z,21.44
2017-08-25T04:04:39.054Z,21.62
2017-08-25T04:05:19.617Z,21.49
2017-08-25T04:06:00.163Z,21.5
2017-08-25T04:06:40.719Z,21.5
2017-08-25T04:07:21.281Z,21.52
2017-08-25T04:08:01.827Z,21.5
2017-08-25T04:08:42.382Z,21.61
2017-08-25T04:09:22.951Z,21.53
2017-08-25T04:10:03.505Z,21.52
2017-08-25T04:10:44.040Z,21.61
2017-08-25T04:11:24.598Z,21.5
2017-08-25T04:12:05.164Z,21.46
2017-08-25T04:12:45.724Z,21.58
2017-08-25T04:13:26.305Z,21.67
2017-08-25T04:14:06.885Z,21.53
2017-08-25T04:14:47.448Z,21.54
2017-08-25T04:15:28.018Z,21.46
2017-08-25T04:16:08.606Z,21.46
2017-08-25T04:16:49.166Z,21.35
2017-08-25T04:17:29.730Z,21.4
2017-08-25T04:18:10.299Z,21.46
2017-08-25T04:18:50.865Z,21.43
2017-08-25T04:19:31.424Z,21.44
2017-08-25T04:20:11.990Z,21.56
2017-08-25T04:20:52.549Z,21.34
2017-08-25T04:21:33.137Z,21.31
2017-08-25T04:22:13.799Z,21.34
2017-08-25T04:22:54.362Z,21.31
2017-08-25T04:23:34.919Z,21.31
2017-08-25T04:24:15.478Z,21.38
2017-08-25T04:24:56.030Z,21.46
2017-08-25T04:25:36.638Z,21.42
2017-08-25T04:26:17.201Z,21.43
2017-08-25T04:26:57.761Z,21.47
2017-08-25T04:27:38.332Z,21.29
2017-08-25T04:28:18.931Z,21.24
2017-08-25T04:28:59.519Z,21.37
2017-08-25T04:29:40.088Z,21.28
2017-08-25T04:30:20.645Z,21.32
2017-08-25T04:31:01.230Z,21.43
2017-08-25T04:31:41.772Z,21.29
2017-08-25T04:32:22.350Z,21.27
2017-08-25T04:33:02.918Z,21.32
2017-08-25T04:33:43.511Z,21.34
2017-08-25T04:34:24.092Z,21.31
2017-08-25T04:35:04.653Z,21.38
2017-08-25T04:35:45.220Z,21.44
2017-08-25T04:36:25.784Z,21.43
2017-08-25T04:37:06.353Z,21.34
2017-08-25T04:37:46.918Z,21.27
2017-08-25T04:38:27.478Z,21.34
2017-08-25T04:39:08.053Z,21.32
2017-08-25T04:39:48.627Z,21.29
2017-08-25T04:40:29.185Z,21.32
2017-08-25T04:41:09.764Z,21.37
2017-08-25T04:41:50.321Z,21.35
2017-08-25T04:42:30.884Z,21.29
2017-08-25T04:43:11.464Z,21.44
2017-08-25T04:43:52.029Z,21.43
2017-08-25T04:44:32.592Z,21.29
2017-08-25T04:45:13.198Z,21.34
2017-08-25T04:45:53.753Z,21.34
2017-08-25T04:46:34.306Z,21.42
2017-08-25T04:47:14.893Z,21.47
2017-08-25T04:47:55.450Z,21.34
2017-08-25T04:48:36.003Z,21.29
2017-08-25T04:49:16.556Z,21.37
2017-08-25T04:49:57.128Z,21.31
2017-08-25T04:50:37.727Z,21.29
2017-08-25T04:51:18.276Z,21.43
2017-08-25T04:51:58.832Z,21.43
2017-08-25T04:52:39.391Z,21.37
2017-08-25T04:53:19.948Z,21.37
2017-08-25T04:54:00.515Z,21.44
2017-08-25T04:54:41.097Z,21.49
2017-08-25T04:55:21.665Z,21.49
2017-08-25T04:56:02.237Z,21.54
2017-08-25T04:56:42.801Z,21.53
2017-08-25T04:57:23.352Z,21.52
2017-08-25T04:58:03.924Z,21.5
2017-08-25T04:58:44.493Z,21.53
2017-08-25T04:59:25.058Z,21.49
2017-08-25T05:00:05.611Z,21.59
2017-08-25T05:00:46.184Z,21.49
2017-08-25T05:01:26.756Z,21.49
2017-08-25T05:02:07.318Z,21.49
2017-08-25T05:02:47.870Z,21.53
2017-08-25T05:03:28.444Z,21.54
2017-08-25T05:04:09.025Z,21.49
2017-08-25T05:04:49.594Z,21.59
2017-08-25T05:05:30.170Z,21.56
2017-08-25T05:06:10.735Z,21.64
2017-08-25T05:06:51.288Z,21.62
2017-08-25T05:07:31.919Z,21.64
2017-08-25T05:08:12.486Z,21.65
2017-08-25T05:08:53.053Z,21.71
2017-08-25T05:09:33.614Z,21.68
2017-08-25T05:10:14.192Z,21.72
2017-08-25T05:10:54.781Z,21.77
2017-08-25T05:11:35.323Z,21.74
2017-08-25T05:12:15.889Z,21.8
2017-08-25T05:12:56.442Z,21.69
2017-08-25T05:13:37.003Z,21.72
2017-08-25T05:14:17.596Z,21.77
2017-08-25T05:14:58.207Z,21.65
2017-08-25T05:15:38.750Z,21.61
2017-08-25T05:16:19.329Z,21.47
2017-08-25T05:16:59.869Z,21.61
2017-08-25T05:17:41.372Z,21.64
2017-08-25T05:18:21.492Z,21.74
2017-08-25T05:19:02.088Z,21.72
2017-08-25T05:19:42.636Z,21.68
2017-08-25T05:20:23.188Z,21.74
2017-08-25T05:21:03.749Z,21.74
2017-08-25T05:21:44.346Z,21.8
2017-08-25T05:22:24.929Z,21.72
2017-08-25T05:23:05.445Z,21.82
2017-08-25T05:23:45.981Z,21.79
2017-08-25T05:24:26.517Z,21.71
2017-08-25T05:25:07.086Z,21.8
2017-08-25T05:25:47.666Z,21.71
2017-08-25T05:26:28.253Z,21.83
2017-08-25T05:27:08.785Z,21.8
2017-08-25T05:27:49.355Z,21.88
2017-08-25T05:28:29.927Z,21.82
2017-08-25T05:29:10.490Z,21.86
2017-08-25T05:29:51.048Z,21.92
2017-08-25T05:30:31.604Z,21.96
2017-08-25T05:31:12.154Z,21.9
2017-08-25T05:31:52.729Z,21.99
2017-08-25T05:32:33.298Z,21.92
2017-08-25T05:33:13.804Z,21.86
2017-08-25T05:33:54.375Z,21.91
2017-08-25T05:34:34.934Z,21.86
2017-08-25T05:35:15.552Z,21.88
2017-08-25T05:35:56.208Z,21.84
2017-08-25T05:36:37.833Z,21.92
2017-08-25T05:38:15.736Z,21.84
2017-08-25T05:38:56.293Z,21.94
2017-08-25T05:39:36.836Z,21.92
2017-08-25T05:40:17.398Z,21.88
2017-08-25T05:40:57.965Z,21.94
2017-08-25T05:41:38.488Z,21.96
2017-08-25T05:42:19.019Z,21.79
2017-08-25T05:42:59.544Z,21.86
2017-08-25T05:43:40.236Z,21.75
2017-08-25T05:44:20.802Z,21.69
2017-08-25T05:45:01.340Z,21.74
2017-08-25T05:45:41.853Z,21.67
2017-08-25T05:46:22.653Z,21.58
2017-08-25T05:47:04.386Z,21.61
2017-08-25T05:47:44.942Z,21.64
2017-08-25T05:48:25.493Z,21.72
2017-08-25T05:49:06.032Z,21.72
2017-08-25T05:49:46.637Z,21.72
2017-08-25T05:50:27.130Z,21.77
2017-08-25T05:51:07.655Z,21.74
2017-08-25T05:51:48.280Z,21.74
2017-08-25T05:52:28.784Z,21.75
2017-08-25T05:53:09.341Z,21.9
2017-08-25T05:53:49.853Z,21.79
2017-08-25T05:54:30.467Z,21.79
2017-08-25T05:55:11.069Z,21.8
2017-08-25T05:56:58.863Z,22.03
2017-08-25T05:57:39.413Z,22.05
2017-08-25T05:58:20.001Z,22
2017-08-25T05:59:00.937Z,22.14
2017-08-25T05:59:41.477Z,22.14
2017-08-25T06:00:22.025Z,22.33
2017-08-25T06:01:02.617Z,22.33
2017-08-25T06:01:43.152Z,22.28
2017-08-25T06:02:23.919Z,22.31
2017-08-25T06:03:04.470Z,22.37
2017-08-25T06:03:45.095Z,22.37
2017-08-25T06:04:26.019Z,22.37
2017-08-25T06:05:06.517Z,22.52
2017-08-25T06:05:47.062Z,22.55
2017-08-25T06:06:27.600Z,22.61
2017-08-25T06:07:08.167Z,22.51
2017-08-25T06:07:48.661Z,22.47
2017-08-25T06:08:29.201Z,22.49
2017-08-25T06:09:09.702Z,22.51
2017-08-25T06:09:50.886Z,22.54
2017-08-25T06:10:31.311Z,22.47
2017-08-25T06:11:11.953Z,22.57
2017-08-25T06:11:52.511Z,22.54
2017-08-25T06:12:33.019Z,22.58
2017-08-25T06:13:14.229Z,22.64
2017-08-25T06:13:54.788Z,22.61
2017-08-25T06:14:35.350Z,22.77
2017-08-25T06:15:15.880Z,22.72
2017-08-25T06:15:56.569Z,22.7
2017-08-25T06:16:37.092Z,22.68
2017-08-25T06:17:17.666Z,22.7
2017-08-25T06:17:58.544Z,22.7
2017-08-25T06:18:39.182Z,22.82
2017-08-25T06:19:19.718Z,22.79
2017-08-25T06:20:00.269Z,22.8
2017-08-25T06:20:40.807Z,22.86
2017-08-25T06:21:21.340Z,22.8
2017-08-25T06:22:01.975Z,22.76
2017-08-25T06:22:42.453Z,22.73
2017-08-25T06:23:23.292Z,22.73
2017-08-25T06:24:03.813Z,22.64
2017-08-25T06:24:44.322Z,22.68
2017-08-25T06:25:24.897Z,22.77
2017-08-25T06:26:05.497Z,22.8
2017-08-25T06:26:46.015Z,22.79
2017-08-25T06:27:26.599Z,22.88
2017-08-25T06:28:07.122Z,22.98
2017-08-25T06:28:48.663Z,23.04
2017-08-25T06:29:29.149Z,22.95
2017-08-25T06:30:09.753Z,22.97
2017-08-25T06:30:50.953Z,22.98
2017-08-25T06:31:31.533Z,22.98
2017-08-25T06:32:12.047Z,23
2017-08-25T06:32:52.759Z,22.95
2017-08-25T06:33:33.246Z,23.01
2017-08-25T06:34:14.132Z,22.92
2017-08-25T06:34:54.637Z,22.86
2017-08-25T06:35:35.205Z,23
2017-08-25T06:36:15.711Z,22.91
2017-08-25T06:36:56.321Z,23.12
2017-08-25T06:37:36.890Z,23.2
2017-08-25T06:38:17.474Z,23.1
2017-08-25T06:38:58.016Z,23.12
2017-08-25T06:39:38.587Z,23.19
2017-08-25T06:40:19.131Z,23.31
2017-08-25T06:40:59.732Z,23.22
2017-08-25T06:41:40.267Z,23.28
2017-08-25T06:42:20.812Z,23.38
2017-08-25T06:43:01.396Z,23.36
2017-08-25T06:43:41.911Z,23.42
2017-08-25T06:44:22.457Z,23.54
2017-08-25T06:45:03.006Z,23.63
2017-08-25T06:45:43.571Z,23.63
2017-08-25T06:46:24.151Z,23.73
2017-08-25T06:47:04.661Z,23.7
2017-08-25T06:47:45.194Z,23.78
2017-08-25T06:48:25.915Z,23.85
2017-08-25T06:49:06.419Z,23.93
2017-08-25T06:49:47.074Z,23.93
2017-08-25T06:50:27.661Z,23.93
2017-08-25T06:51:08.167Z,23.97
2017-08-25T06:51:48.733Z,24.09
2017-08-25T06:52:29.357Z,24.16
2017-08-25T06:53:10.469Z,24.16
2017-08-25T06:53:51.001Z,24.1
2017-08-25T06:54:31.554Z,24.28
2017-08-25T06:55:12.142Z,24.2
2017-08-25T06:55:52.688Z,24.22
2017-08-25T06:56:33.284Z,24.16
2017-08-25T06:57:13.821Z,24.13
2017-08-25T06:57:54.525Z,24.08
2017-08-25T06:58:34.939Z,24.05
2017-08-25T06:59:15.452Z,24.06
2017-08-25T06:59:56.012Z,24.08
2017-08-25T07:00:36.576Z,24.06
2017-08-25T07:01:17.772Z,24.06
2017-08-25T07:01:59.067Z,24.15
2017-08-25T07:02:39.607Z,24.27
2017-08-25T07:03:20.185Z,24.16
2017-08-25T07:04:00.718Z,24.27
2017-08-25T07:04:41.237Z,24.27
2017-08-25T07:05:21.743Z,24.3
2017-08-25T07:06:02.414Z,24.4
2017-08-25T07:06:43.512Z,24.39
2017-08-25T07:07:23.430Z,24.42
2017-08-25T07:08:03.985Z,24.42
2017-08-25T07:08:44.704Z,24.5
2017-08-25T07:09:25.490Z,24.58
2017-08-25T07:10:06.509Z,24.68
2017-08-25T07:11:45.012Z,24.81
2017-08-25T07:12:26.365Z,24.8
2017-08-25T07:14:05.168Z,25
2017-08-25T07:14:46.004Z,25.14
2017-08-25T07:15:26.630Z,25.09
2017-08-25T07:16:07.175Z,25.08
2017-08-25T07:16:48.843Z,25.25
2017-08-25T07:17:29.466Z,25.32
2017-08-25T07:18:10.457Z,25.4
2017-08-25T07:18:52.119Z,25.25
2017-08-25T07:19:35.272Z,25.23
2017-08-25T07:20:15.821Z,25.3
2017-08-25T07:20:56.398Z,25.33
2017-08-25T07:21:38.122Z,25.2
2017-08-25T07:22:17.835Z,25.15
2017-08-25T07:22:58.342Z,25.17
2017-08-25T07:23:38.870Z,25.25
2017-08-25T07:24:19.471Z,25.36
2017-08-25T07:25:02.594Z,25.36
2017-08-25T07:25:43.165Z,25.4
2017-08-25T07:26:23.734Z,25.46
2017-08-25T07:27:04.309Z,25.47
2017-08-25T07:27:44.848Z,25.58
2017-08-25T07:28:28.314Z,25.52
2017-08-25T07:29:08.849Z,25.64
2017-08-25T07:29:49.397Z,25.62
2017-08-25T07:30:29.953Z,25.62
2017-08-25T07:31:10.508Z,25.55
2017-08-25T07:31:51.100Z,25.45
2017-08-25T07:32:31.654Z,25.27
2017-08-25T07:33:12.205Z,25.4
2017-08-25T07:33:52.752Z,25.38
2017-08-25T07:34:33.304Z,25.25
2017-08-25T07:35:13.853Z,25.24
2017-08-25T07:35:54.407Z,25.25
2017-08-25T07:36:34.974Z,25.18
2017-08-25T07:37:15.541Z,25.23
2017-08-25T07:37:56.083Z,25.1
2017-08-25T07:38:36.634Z,25.33
2017-08-25T07:39:17.202Z,25.18
2017-08-25T07:39:57.754Z,25.21
2017-08-25T07:40:38.305Z,25.17
2017-08-25T07:41:19.340Z,25.09
2017-08-25T07:42:00.315Z,25.1
2017-08-25T07:42:41.597Z,25
2017-08-25T07:43:22.300Z,25.06
2017-08-25T07:44:03.780Z,25.06
2017-08-25T07:44:45.099Z,25.1
2017-08-25T07:45:25.655Z,25.08
2017-08-25T07:46:06.255Z,25.05
2017-08-25T07:46:46.810Z,25.14
2017-08-25T07:47:27.344Z,25.14
2017-08-25T07:48:07.932Z,25.1
2017-08-25T07:48:48.493Z,25.17
2017-08-25T07:49:29.023Z,25.27
2017-08-25T07:50:09.625Z,25.3
2017-08-25T07:50:50.316Z,25.33
2017-08-25T07:51:30.755Z,25.27
2017-08-25T07:52:11.299Z,25.25
2017-08-25T07:52:51.876Z,25.1
2017-08-25T07:53:32.387Z,25
2017-08-25T07:54:12.988Z,24.99
2017-08-25T07:54:53.496Z,25.03
2017-08-25T07:55:34.096Z,24.99
2017-08-25T07:56:14.669Z,24.99
2017-08-25T07:56:55.201Z,25.05
2017-08-25T07:57:35.772Z,25.09
2017-08-25T07:58:16.312Z,25.13
2017-08-25T07:58:56.847Z,25.1
2017-08-25T07:59:37.387Z,25.14
2017-08-25T08:00:17.952Z,25.14
2017-08-25T08:00:58.556Z,25.25
2017-08-25T08:01:39.124Z,25.27
2017-08-25T08:02:19.698Z,25.14
2017-08-25T08:03:00.251Z,25.14
2017-08-25T08:03:40.871Z,25.15
2017-08-25T08:04:21.493Z,25.23
2017-08-25T08:05:02.208Z,25.09
2017-08-25T08:05:42.768Z,25.15
2017-08-25T08:06:23.308Z,25.13
2017-08-25T08:07:03.866Z,24.99
2017-08-25T08:07:44.448Z,24.93
2017-08-25T08:08:24.971Z,25.05
2017-08-25T08:09:05.547Z,25.03
2017-08-25T08:09:46.084Z,25.09
2017-08-25T08:10:26.646Z,25.1
2017-08-25T08:11:07.789Z,25.06
2017-08-25T08:11:48.563Z,25.1
2017-08-25T08:12:29.360Z,25.13
2017-08-25T08:13:10.387Z,25.06
2017-08-25T08:13:50.971Z,25.1
2017-08-25T08:14:31.505Z,24.98
2017-08-25T08:15:12.088Z,25.1
2017-08-25T08:15:52.667Z,25.03
2017-08-25T08:16:33.564Z,25.15
2017-08-25T08:17:14.136Z,25.13
2017-08-25T08:17:55.319Z,25.09
2017-08-25T08:18:35.849Z,25.23
2017-08-25T08:19:16.433Z,25.21
2017-08-25T08:19:57.043Z,25.18
2017-08-25T08:20:37.547Z,25.23
2017-08-25T08:21:18.150Z,25.32
2017-08-25T08:21:58.759Z,25.33
2017-08-25T08:22:39.313Z,25.3
2017-08-25T08:23:19.889Z,25.27
2017-08-25T08:24:00.431Z,25.28
2017-08-25T08:24:41.052Z,25.32
2017-08-25T08:25:21.593Z,25.39
2017-08-25T08:26:02.152Z,25.38
2017-08-25T08:26:42.888Z,25.32
2017-08-25T08:27:23.449Z,25.33
2017-08-25T08:28:04.016Z,25.35
2017-08-25T08:28:44.593Z,25.38
2017-08-25T08:29:25.783Z,25.38
2017-08-25T08:30:06.249Z,25.36
2017-08-25T08:30:46.784Z,25.21
2017-08-25T08:31:27.389Z,25.32
2017-08-25T08:32:07.920Z,25.42
2017-08-25T08:32:48.417Z,25.28
2017-08-25T08:33:28.951Z,25.32
2017-08-25T08:34:09.552Z,25.33
2017-08-25T08:34:49.999Z,25.42
2017-08-25T08:35:30.727Z,25.45
2017-08-25T08:36:11.283Z,25.35
2017-08-25T08:36:51.790Z,25.36
2017-08-25T08:37:32.363Z,25.43
2017-08-25T08:38:12.939Z,25.45
2017-08-25T08:38:53.473Z,25.45
2017-08-25T08:39:34.113Z,25.39
2017-08-25T08:40:14.621Z,25.42
2017-08-25T08:40:55.166Z,25.51
2017-08-25T08:41:35.727Z,25.46
2017-08-25T08:42:16.281Z,25.46
2017-08-25T08:42:56.817Z,25.54
2017-08-25T08:43:37.458Z,25.57
2017-08-25T08:44:18.034Z,25.45
2017-08-25T08:44:58.537Z,25.51
2017-08-25T08:45:39.424Z,25.45
2017-08-25T08:46:20.000Z,25.4
2017-08-25T08:47:00.523Z,25.42
2017-08-25T08:47:41.065Z,25.5
2017-08-25T08:48:21.702Z,25.52
2017-08-25T08:49:02.217Z,25.45
2017-08-25T08:49:43.007Z,25.5